Aripeka, Florida
Current Conditions -  °F | °C
As of 6:53 PM on Friday 21 Nov 2014 (Local Time) from KBKV Reporting Station
Broken Clouds Broken Clouds  
Wind Chill: 18°   Ceiling: 9000
Heat Index: 18°   Visibility: 10mi
Dew Point: 11°   Wind: 13mph
Humidity: 63%   Direction: 50°NE
Pressure: 30.28"   Gusts: NA
Location:  28.43°N, 82.66°W
Report Text: KBKV 212353Z AUTO 05011KT 10SM BKN090 BKN110 18/11 A3028 RMK AO2 SLP252 T01780106 10228 20178 51013
Loading
Personal Weather Stations






























Interactive Weather Map New forecast layout! Learn more

10-Day Weather Forecast

Advertisements
Track Severe Weather on mobile